Rhome, TX (76078)

1:48 AM CST on December 09, 2016 (GMT -0600)
KTXRHOME2 | | Change Station

Elev 899 ft 33.05 °N, 97.45 °W | Updated 2 seconds ago

Partly Cloudy
Partly Cloudy
24.6 °F
Feels Like 25 °F
N
1.0
Wind Variable Wind from North
Gusts 3.0 mph

Today
High -- | Low -- °F
--% Chance of Precip.
Yesterday
High -- | Low -- °F
Precip. -- in
Pressure 30.71 in
Visibility 10.0 miles
Clouds Clear
Windchill 25 °F
Dew Point 16 °F
Humidity 71%
Rainfall 0.00 in
Snow Depth Not available.
7:21 AM 5:23 PM
Waxing Gibbous, 71% visible
METAR KAFW 090653Z 33006KT 10SM CLR M04/M09 A3066 RMK AO2 SLP399 T10441089
Pressure 30.71 in
Visibility 10.0 miles
Clouds Clear
Windchill 25 °F
Dew Point 16 °F
Humidity 71%
Rainfall 0.00 in
Snow Depth Not available.
7:21 AM 5:23 PM
Waxing Gibbous, 71% visible
METAR KAFW 090653Z 33006KT 10SM CLR M04/M09 A3066 RMK AO2 SLP399 T10441089

10-Day Weather Forecast

Almanac

Astronomy

Dec. 09, 2016 Rise Set
Actual Time
Civil Twilight
Nautical Twilight
Astronomical Twilight
Moon
Length of Visible Light
Length of Day
Tomorrow will be .
, % of the Moon is Illuminated

Today's Extremes

State Highs State Lows

Community

WunderPhotos

Upload Photos

1,956,374 photos uploaded!

WunderBlog® & News

Nearby

Air Quality

  Air Quality AQ Index Pollutant
Not available.

Snow Depth

Station Depth Elevation

Earthquake Activity

City Distance Mag. Time & Date
Minimum magnitude displayed is 2.5.

Coastal Water Temperatures

Place Temperature

Stations

Nearby Weather Stations

Station Location Temp. Windchill Dew Point Humidity Wind Precip. Elev Updated Type
                   

Watches & Warnings

There are currently no watches in effect.